createdAt,value
2023-03-26T00:00:13.375Z,6.89
2023-03-26T00:05:38.936Z,6.90
2023-03-26T00:10:44.880Z,6.92
2023-03-26T00:15:50.165Z,6.94
2023-03-26T00:20:55.806Z,6.95
2023-03-26T00:26:01.557Z,6.95
2023-03-26T00:31:10.290Z,6.95
2023-03-26T00:36:17.604Z,6.95
2023-03-26T00:41:26.381Z,6.95
2023-03-26T00:46:32.997Z,6.95
2023-03-26T00:51:39.375Z,6.94
2023-03-26T00:56:45.364Z,6.95
2023-03-26T01:01:55.131Z,6.93
2023-03-26T01:07:04.854Z,6.91
2023-03-26T01:12:17.003Z,6.89
2023-03-26T01:17:23.866Z,6.87
2023-03-26T01:22:30.026Z,6.87
2023-03-26T01:27:41.244Z,6.87
2023-03-26T01:32:55.777Z,6.83
2023-03-26T01:38:18.465Z,6.78
2023-03-26T01:43:32.482Z,6.73
2023-03-26T01:48:40.433Z,6.69
2023-03-26T01:53:48.606Z,6.65
2023-03-26T01:59:08.246Z,6.60
2023-03-26T02:04:24.638Z,6.56
2023-03-26T02:09:35.858Z,6.54
2023-03-26T02:14:42.436Z,6.57
2023-03-26T02:19:48.116Z,6.57
2023-03-26T02:24:53.587Z,6.56
2023-03-26T02:29:58.927Z,6.52
2023-03-26T02:35:06.877Z,6.45
2023-03-26T02:40:12.766Z,6.38
2023-03-26T02:45:18.440Z,6.29
2023-03-26T02:50:24.156Z,6.21
2023-03-26T02:55:29.813Z,6.22
2023-03-26T03:00:35.647Z,6.23
2023-03-26T03:05:43.306Z,6.22
2023-03-26T03:10:59.117Z,6.23
2023-03-26T03:16:05.775Z,6.24
2023-03-26T03:21:11.277Z,6.27
2023-03-26T03:26:21.720Z,6.31
2023-03-26T03:31:28.471Z,6.33
2023-03-26T03:36:33.942Z,6.34
2023-03-26T03:41:39.288Z,6.36
2023-03-26T03:46:44.684Z,6.38
2023-03-26T03:51:50.278Z,6.41
2023-03-26T03:56:56.454Z,6.42
2023-03-26T04:02:02.309Z,6.44
2023-03-26T04:07:07.643Z,6.43
2023-03-26T04:12:13.054Z,6.42
2023-03-26T04:17:21.965Z,6.38
2023-03-26T04:22:34.635Z,6.33
2023-03-26T04:27:43.364Z,6.28
2023-03-26T04:32:49.181Z,6.26
2023-03-26T04:37:54.952Z,6.26
2023-03-26T04:43:02.383Z,6.26
2023-03-26T04:48:08.296Z,6.26
2023-03-26T04:53:16.625Z,6.28
2023-03-26T04:58:21.965Z,6.28
2023-03-26T05:03:31.364Z,6.29
2023-03-26T05:08:36.678Z,6.30
2023-03-26T05:13:42.926Z,6.30
2023-03-26T05:18:48.482Z,6.29
2023-03-26T05:23:54.001Z,6.29
2023-03-26T05:28:59.798Z,6.30
2023-03-26T05:34:06.745Z,6.31
2023-03-26T05:39:14.259Z,6.32
2023-03-26T05:44:19.878Z,6.31
2023-03-26T05:49:25.525Z,6.35
2023-03-26T05:54:31.363Z,6.40
2023-03-26T05:59:36.823Z,6.48
2023-03-26T06:04:42.876Z,6.46
2023-03-26T06:09:48.779Z,6.34
2023-03-26T06:14:54.224Z,6.16
2023-03-26T06:19:59.551Z,6.00
2023-03-26T06:25:06.314Z,5.87
2023-03-26T06:30:13.818Z,5.81
2023-03-26T06:35:19.438Z,5.83
2023-03-26T06:40:25.534Z,5.93
2023-03-26T06:45:32.327Z,6.02
2023-03-26T06:50:37.663Z,6.12
2023-03-26T06:55:43.205Z,6.31
2023-03-26T07:00:48.951Z,6.49
2023-03-26T07:05:54.696Z,6.80
2023-03-26T07:11:00.256Z,7.01
2023-03-26T07:16:07.319Z,7.31
2023-03-26T07:21:14.903Z,7.57
2023-03-26T07:26:31.121Z,7.74
2023-03-26T07:31:42.639Z,7.63
2023-03-26T07:36:57.232Z,7.66
2023-03-26T07:42:11.491Z,7.78
2023-03-26T07:47:27.198Z,7.89
2023-03-26T07:52:33.875Z,7.93
2023-03-26T07:57:47.531Z,7.89
2023-03-26T08:03:13.923Z,7.85
2023-03-26T08:08:27.262Z,7.86
2023-03-26T08:13:42.305Z,7.97
2023-03-26T08:18:56.318Z,7.91
2023-03-26T08:24:07.817Z,7.73
2023-03-26T08:29:23.064Z,7.73
2023-03-26T08:34:28.572Z,7.94
2023-03-26T08:39:34.186Z,8.08
2023-03-26T08:45:26.410Z,8.12
2023-03-26T08:50:56.615Z,8.01
2023-03-26T08:56:12.039Z,7.83
2023-03-26T09:01:41.161Z,7.73
2023-03-26T09:07:10.001Z,7.53
2023-03-26T09:12:46.606Z,7.41
2023-03-26T09:18:25.262Z,7.32
2023-03-26T09:23:56.110Z,7.26
2023-03-26T09:29:34.722Z,7.15
2023-03-26T09:34:55.089Z,7.07
2023-03-26T09:40:15.420Z,7.06
2023-03-26T09:45:38.250Z,7.07
2023-03-26T09:50:56.343Z,6.96
2023-03-26T09:56:14.371Z,6.96
2023-03-26T10:01:29.231Z,6.99
2023-03-26T10:06:48.999Z,6.97
2023-03-26T10:12:08.879Z,6.87
2023-03-26T10:17:32.041Z,6.96
2023-03-26T10:22:51.607Z,7.06
2023-03-26T10:28:09.816Z,7.17
2023-03-26T10:33:25.219Z,7.38
2023-03-26T10:38:46.756Z,7.60
2023-03-26T10:44:15.788Z,7.66
2023-03-26T10:49:39.762Z,7.55
2023-03-26T10:54:55.400Z,7.38
2023-03-26T11:00:12.807Z,7.43
2023-03-26T11:05:39.552Z,7.58
2023-03-26T11:10:56.416Z,7.79
2023-03-26T11:16:06.110Z,8.16
2023-03-26T11:21:20.677Z,8.51
2023-03-26T11:26:32.843Z,8.90
2023-03-26T11:31:48.503Z,9.18
2023-03-26T11:36:56.519Z,9.37
2023-03-26T11:42:07.374Z,9.61
2023-03-26T11:47:16.265Z,9.82
2023-03-26T11:52:22.348Z,9.97
2023-03-26T11:57:33.434Z,10.06
2023-03-26T12:02:42.181Z,10.05
2023-03-26T12:07:52.702Z,10.36
2023-03-26T12:13:01.594Z,10.83
2023-03-26T12:18:25.910Z,11.10
2023-03-26T12:23:43.576Z,11.18
2023-03-26T12:28:51.294Z,11.28
2023-03-26T12:34:14.047Z,11.34
2023-03-26T12:40:08.087Z,11.54
2023-03-26T12:44:59.951Z,11.17
2023-03-26T12:50:09.659Z,11.31
2023-03-26T12:55:38.105Z,11.40
2023-03-26T13:00:55.599Z,11.15
2023-03-26T13:06:20.506Z,10.95
2023-03-26T13:11:34.336Z,10.89
2023-03-26T13:16:46.691Z,11.03
2023-03-26T13:22:02.767Z,11.16
2023-03-26T13:27:22.280Z,11.09
2023-03-26T13:32:37.876Z,11.02
2023-03-26T13:37:51.403Z,11.04
2023-03-26T13:43:14.481Z,10.98
2023-03-26T13:48:24.176Z,10.94
2023-03-26T13:53:35.064Z,10.96
2023-03-26T13:58:49.031Z,10.85
2023-03-26T14:04:04.361Z,10.69
2023-03-26T14:09:17.847Z,10.70
2023-03-26T14:14:31.582Z,10.80
2023-03-26T14:20:10.975Z,10.78
2023-03-26T14:25:25.867Z,10.68
2023-03-26T14:31:08.824Z,10.59
2023-03-26T14:36:29.003Z,10.58
2023-03-26T14:41:43.824Z,10.56
2023-03-26T14:47:02.754Z,10.47
2023-03-26T14:52:14.856Z,10.39
2023-03-26T14:57:38.546Z,10.33
2023-03-26T15:03:34.825Z,10.38
2023-03-26T15:09:11.456Z,10.53
2023-03-26T15:14:43.824Z,10.77
2023-03-26T15:20:10.646Z,10.87
2023-03-26T15:25:41.063Z,10.80
2023-03-26T15:31:11.260Z,10.49
2023-03-26T15:36:37.179Z,10.25
2023-03-26T15:41:49.622Z,10.25
2023-03-26T15:47:26.353Z,10.26
2023-03-26T15:52:38.263Z,10.22
2023-03-26T15:57:53.122Z,10.17
2023-03-26T16:03:34.263Z,10.10
2023-03-26T16:08:53.239Z,9.95
2023-03-26T16:14:17.445Z,9.81
2023-03-26T16:19:58.989Z,9.66
2023-03-26T16:25:29.603Z,9.48
2023-03-26T16:30:37.022Z,9.36
2023-03-26T16:35:59.710Z,9.18
2023-03-26T16:41:14.834Z,9.06
2023-03-26T16:46:34.529Z,8.96
2023-03-26T16:51:57.007Z,8.93
2023-03-26T16:57:15.531Z,8.87
2023-03-26T17:02:29.084Z,8.77
2023-03-26T17:07:38.866Z,8.66
2023-03-26T17:12:51.362Z,8.57
2023-03-26T17:18:32.428Z,8.51
2023-03-26T17:24:00.193Z,8.37
2023-03-26T17:29:20.331Z,8.27
2023-03-26T17:34:46.630Z,8.14
2023-03-26T17:40:37.152Z,8.02
2023-03-26T17:45:43.897Z,7.93
2023-03-26T17:50:54.394Z,7.81
2023-03-26T17:56:05.531Z,7.69
2023-03-26T18:01:22.276Z,7.59
2023-03-26T18:06:44.975Z,7.50
2023-03-26T18:12:11.633Z,7.40
2023-03-26T18:17:17.398Z,7.19
2023-03-26T18:22:26.587Z,6.92
2023-03-26T18:27:40.555Z,6.80
2023-03-26T18:33:00.120Z,6.70
2023-03-26T18:38:06.111Z,6.47
2023-03-26T18:43:32.276Z,6.36
2023-03-26T18:48:40.948Z,6.29
2023-03-26T18:53:50.738Z,6.19
2023-03-26T18:58:58.911Z,6.12
2023-03-26T19:04:07.041Z,6.06
2023-03-26T19:09:30.325Z,6.03
2023-03-26T19:14:53.537Z,5.97
2023-03-26T19:19:59.208Z,5.93
2023-03-26T19:25:05.852Z,5.86
2023-03-26T19:30:20.110Z,5.77
2023-03-26T19:35:25.515Z,5.69
2023-03-26T19:40:34.974Z,5.62
2023-03-26T19:45:59.861Z,5.53
2023-03-26T19:51:19.501Z,5.46
2023-03-26T19:56:25.581Z,5.42
2023-03-26T20:01:32.187Z,5.33
2023-03-26T20:06:43.777Z,5.26
2023-03-26T20:11:52.622Z,5.21
2023-03-26T20:16:58.115Z,5.17
2023-03-26T20:22:05.389Z,5.10
2023-03-26T20:27:13.796Z,5.03
2023-03-26T20:32:26.495Z,4.96
2023-03-26T20:37:32.585Z,4.88
2023-03-26T20:42:38.441Z,4.83
2023-03-26T20:47:44.042Z,4.80
2023-03-26T20:52:50.458Z,4.75
2023-03-26T20:57:55.867Z,4.74
2023-03-26T21:03:02.000Z,4.73
2023-03-26T21:08:12.912Z,4.70
2023-03-26T21:13:39.085Z,4.63
2023-03-26T21:18:46.015Z,4.57
2023-03-26T21:24:00.253Z,4.56
2023-03-26T21:29:06.311Z,4.48
2023-03-26T21:34:13.387Z,4.41
2023-03-26T21:39:20.291Z,4.40
2023-03-26T21:44:27.229Z,4.34
2023-03-26T21:49:34.884Z,4.31
2023-03-26T21:54:43.014Z,4.26
2023-03-26T21:59:56.695Z,4.21
2023-03-26T22:05:06.142Z,4.15
2023-03-26T22:10:11.794Z,4.11
2023-03-26T22:15:18.264Z,4.05
2023-03-26T22:20:25.159Z,3.93
2023-03-26T22:25:51.043Z,3.82
2023-03-26T22:31:16.844Z,3.70
2023-03-26T22:36:42.755Z,3.59
2023-03-26T22:42:08.471Z,3.54
2023-03-26T22:47:34.177Z,3.54
2023-03-26T22:53:00.290Z,3.52
2023-03-26T22:58:26.055Z,3.47
2023-03-26T23:03:52.293Z,3.39
2023-03-26T23:09:18.038Z,3.36
2023-03-26T23:14:44.172Z,3.33
2023-03-26T23:20:09.817Z,3.26
2023-03-26T23:25:35.556Z,3.22
2023-03-26T23:31:05.441Z,3.16
2023-03-26T23:36:32.911Z,3.05
2023-03-26T23:41:58.850Z,2.97
2023-03-26T23:47:24.626Z,2.90
2023-03-26T23:52:51.856Z,2.81
2023-03-26T23:58:17.511Z,2.72
